createdAt,value
2018-10-12T00:00:35.385Z,41.10
2018-10-12T00:03:04.040Z,32.07
2018-10-12T00:05:32.624Z,30.70
2018-10-12T00:08:01.232Z,36.23
2018-10-12T00:10:29.810Z,39.67
2018-10-12T00:12:58.344Z,33.30
2018-10-12T00:15:27.300Z,28.80
2018-10-12T00:17:56.489Z,35.77
2018-10-12T00:20:25.061Z,34.10
2018-10-12T00:22:53.825Z,39.07
2018-10-12T00:25:22.804Z,35.40
2018-10-12T00:27:51.552Z,31.03
2018-10-12T00:30:20.537Z,30.93
2018-10-12T00:32:49.065Z,41.97
2018-10-12T00:35:17.616Z,32.20
2018-10-12T00:37:46.193Z,40.13
2018-10-12T00:40:14.768Z,39.80
2018-10-12T00:42:43.392Z,39.37
2018-10-12T00:45:12.514Z,33.87
2018-10-12T00:47:41.184Z,35.13
2018-10-12T00:50:09.945Z,36.93
2018-10-12T00:52:38.621Z,31.53
2018-10-12T00:55:07.368Z,33.50
2018-10-12T00:57:36.198Z,30.10
2018-10-12T01:00:04.926Z,33.40
2018-10-12T01:02:33.532Z,29.40
2018-10-12T01:05:02.174Z,30.07
2018-10-12T01:07:30.829Z,31.70
2018-10-12T01:09:59.500Z,34.30
2018-10-12T01:12:34.472Z,31.30
2018-10-12T01:15:03.601Z,27.23
2018-10-12T01:17:33.350Z,33.00
2018-10-12T01:20:02.672Z,33.00
2018-10-12T01:22:31.344Z,45.33
2018-10-12T01:25:01.521Z,36.43
2018-10-12T01:27:30.832Z,32.10
2018-10-12T01:29:59.448Z,39.20
2018-10-12T01:32:33.228Z,32.03
2018-10-12T01:35:01.853Z,36.20
2018-10-12T01:37:30.555Z,34.53
2018-10-12T01:39:59.124Z,38.97
2018-10-12T01:42:27.726Z,31.47
2018-10-12T01:44:57.068Z,38.17
2018-10-12T01:47:25.699Z,33.17
2018-10-12T01:49:54.357Z,30.63
2018-10-12T01:52:22.912Z,33.37
2018-10-12T01:54:51.728Z,31.10
2018-10-12T01:57:20.328Z,33.53
2018-10-12T01:59:49.172Z,33.60
2018-10-12T02:02:18.133Z,32.50
2018-10-12T02:04:46.762Z,36.80
2018-10-12T02:07:15.337Z,41.60
2018-10-12T02:09:44.029Z,28.00
2018-10-12T02:12:12.592Z,27.60
2018-10-12T02:14:41.133Z,33.17
2018-10-12T02:17:09.743Z,40.63
2018-10-12T02:19:38.380Z,33.57
2018-10-12T02:22:06.990Z,31.10
2018-10-12T02:24:35.829Z,36.43
2018-10-12T02:27:04.426Z,29.23
2018-10-12T02:29:32.968Z,30.23
2018-10-12T02:32:01.545Z,35.00
2018-10-12T02:34:30.141Z,27.93
2018-10-12T02:36:59.284Z,38.53
2018-10-12T02:39:27.897Z,33.33
2018-10-12T02:41:56.568Z,32.83
2018-10-12T02:44:25.092Z,30.10
2018-10-12T02:46:53.789Z,27.60
2018-10-12T02:49:22.365Z,34.13
2018-10-12T02:51:51.025Z,28.17
2018-10-12T02:54:19.608Z,28.57
2018-10-12T02:56:48.250Z,34.10
2018-10-12T02:59:16.940Z,29.70
2018-10-12T03:01:45.593Z,24.17
2018-10-12T03:04:14.260Z,26.30
2018-10-12T03:06:42.944Z,31.47
2018-10-12T03:09:12.905Z,32.80
2018-10-12T03:11:41.925Z,29.50
2018-10-12T03:14:10.560Z,36.03
2018-10-12T03:16:39.200Z,36.93
2018-10-12T03:19:07.767Z,28.30
2018-10-12T03:21:36.349Z,28.10
2018-10-12T03:24:05.048Z,28.70
2018-10-12T03:26:33.581Z,29.80
2018-10-12T03:29:02.149Z,28.17
2018-10-12T03:31:30.846Z,32.07
2018-10-12T03:33:59.417Z,29.63
2018-10-12T03:36:28.421Z,28.13
2018-10-12T03:38:57.093Z,30.40
2018-10-12T03:41:25.793Z,33.20
2018-10-12T03:43:54.460Z,34.30
2018-10-12T03:46:23.085Z,28.50
2018-10-12T03:48:51.629Z,29.27
2018-10-12T03:51:20.240Z,26.27
2018-10-12T03:53:49.004Z,27.73
2018-10-12T03:56:17.613Z,33.47
2018-10-12T03:58:46.141Z,30.20
2018-10-12T04:01:14.748Z,28.60
2018-10-12T04:03:43.405Z,32.67
2018-10-12T04:06:12.081Z,33.63
2018-10-12T04:08:40.725Z,30.90
2018-10-12T04:11:09.336Z,28.30
2018-10-12T04:13:37.908Z,32.03
2018-10-12T04:16:06.517Z,27.87
2018-10-12T04:18:35.112Z,41.40
2018-10-12T04:21:03.648Z,33.60
2018-10-12T04:23:32.292Z,32.40
2018-10-12T04:26:00.877Z,39.53
2018-10-12T04:28:29.804Z,32.67
2018-10-12T04:30:58.452Z,30.40
2018-10-12T04:33:27.420Z,29.63
2018-10-12T04:35:56.032Z,34.50
2018-10-12T04:38:24.849Z,33.77
2018-10-12T04:41:01.814Z,32.50
2018-10-12T04:43:31.128Z,33.07
2018-10-12T04:46:00.529Z,38.00
2018-10-12T04:48:29.516Z,31.60
2018-10-12T04:50:58.180Z,33.63
2018-10-12T04:53:26.830Z,32.77
2018-10-12T04:55:55.429Z,34.37
2018-10-12T04:58:24.232Z,30.10
2018-10-12T05:00:52.935Z,31.93
2018-10-12T05:03:21.500Z,36.67
2018-10-12T05:05:50.153Z,40.03
2018-10-12T05:08:19.117Z,33.30
2018-10-12T05:10:47.816Z,40.07
2018-10-12T05:13:16.641Z,34.77
2018-10-12T05:15:45.197Z,40.37
2018-10-12T05:18:13.782Z,37.57
2018-10-12T05:20:42.409Z,50.17
2018-10-12T05:23:11.073Z,38.17
2018-10-12T05:25:39.668Z,57.47
2018-10-12T05:28:08.441Z,46.27
2018-10-12T05:30:36.964Z,42.47
2018-10-12T05:33:05.633Z,61.00
2018-10-12T05:35:34.517Z,38.80
2018-10-12T05:38:03.340Z,34.83
2018-10-12T05:40:31.937Z,43.00
2018-10-12T05:43:01.295Z,33.40
2018-10-12T05:45:29.789Z,40.93
2018-10-12T05:48:09.623Z,41.47
2018-10-12T05:50:38.285Z,34.77
2018-10-12T05:53:07.096Z,37.47
2018-10-12T05:55:36.612Z,31.97
2018-10-12T05:58:05.592Z,39.90
2018-10-12T06:00:34.197Z,39.23
2018-10-12T06:03:02.797Z,42.27
2018-10-12T06:05:31.421Z,40.23
2018-10-12T06:07:59.999Z,39.20
2018-10-12T06:10:28.629Z,44.07
2018-10-12T06:12:57.210Z,37.47
2018-10-12T06:15:26.700Z,39.17
2018-10-12T06:17:55.352Z,47.57
2018-10-12T06:20:23.886Z,36.43
2018-10-12T06:22:52.434Z,36.13
2018-10-12T06:25:21.084Z,32.37
2018-10-12T06:27:49.720Z,38.80
2018-10-12T06:30:18.373Z,36.13
2018-10-12T06:32:47.096Z,36.57
2018-10-12T06:35:15.641Z,37.07
2018-10-12T06:37:44.156Z,36.27
2018-10-12T06:40:12.970Z,36.30
2018-10-12T06:42:41.645Z,35.53
2018-10-12T06:45:10.309Z,37.13
2018-10-12T06:47:38.941Z,37.80
2018-10-12T06:50:07.943Z,36.40
2018-10-12T06:52:36.944Z,43.43
2018-10-12T06:55:05.904Z,33.93
2018-10-12T06:57:34.554Z,41.03
2018-10-12T07:00:03.303Z,37.70
2018-10-12T07:02:32.156Z,38.70
2018-10-12T07:05:01.104Z,44.73
2018-10-12T07:07:29.816Z,41.43
2018-10-12T07:09:58.586Z,42.67
2018-10-12T07:12:27.248Z,33.40
2018-10-12T07:14:55.852Z,33.20
2018-10-12T07:17:24.576Z,30.33
2018-10-12T07:19:53.150Z,35.77
2018-10-12T07:22:21.828Z,36.27
2018-10-12T07:24:50.440Z,35.77
2018-10-12T07:27:18.997Z,35.00
2018-10-12T07:29:47.663Z,35.67
2018-10-12T07:32:16.284Z,40.50
2018-10-12T07:34:44.904Z,37.73
2018-10-12T07:37:13.592Z,35.13
2018-10-12T07:39:42.265Z,44.67
2018-10-12T07:42:10.818Z,36.00
2018-10-12T07:44:39.387Z,38.40
2018-10-12T07:47:08.503Z,35.83
2018-10-12T07:49:37.126Z,35.50
2018-10-12T07:52:05.813Z,37.47
2018-10-12T07:54:34.480Z,38.77
2018-10-12T07:57:08.287Z,38.70
2018-10-12T07:59:37.173Z,36.50
2018-10-12T08:02:05.764Z,35.77
2018-10-12T08:04:34.355Z,32.73
2018-10-12T08:07:03.021Z,39.33
2018-10-12T08:09:31.628Z,29.13
2018-10-12T08:12:00.196Z,37.10
2018-10-12T08:14:29.153Z,35.10
2018-10-12T08:16:57.934Z,34.33
2018-10-12T08:19:26.505Z,28.57
2018-10-12T08:21:55.173Z,28.97
2018-10-12T08:24:23.872Z,40.50
2018-10-12T08:26:52.517Z,32.63
2018-10-12T08:29:24.289Z,32.03
2018-10-12T08:31:53.061Z,32.43
2018-10-12T08:34:21.653Z,42.80
2018-10-12T08:36:50.630Z,44.70
2018-10-12T08:39:19.216Z,29.83
2018-10-12T08:41:47.846Z,26.87
2018-10-12T08:44:16.768Z,32.70
2018-10-12T08:46:45.376Z,30.80
2018-10-12T08:49:13.921Z,25.97
2018-10-12T08:51:42.465Z,21.50
2018-10-12T08:54:11.076Z,28.73
2018-10-12T08:56:39.916Z,22.20
2018-10-12T08:59:09.226Z,25.60
2018-10-12T09:01:37.884Z,35.70
2018-10-12T09:04:06.600Z,18.83
2018-10-12T09:06:35.177Z,23.83
2018-10-12T09:09:05.556Z,21.83
2018-10-12T09:11:34.281Z,22.83
2018-10-12T09:14:02.868Z,17.80
2018-10-12T09:16:31.497Z,19.27
2018-10-12T09:19:00.181Z,22.50
2018-10-12T09:21:29.121Z,20.90
2018-10-12T09:23:57.680Z,16.33
2018-10-12T09:26:26.633Z,19.57
2018-10-12T09:28:55.280Z,20.30
2018-10-12T09:31:23.876Z,17.90
2018-10-12T09:33:52.528Z,21.27
2018-10-12T09:36:21.263Z,21.20
2018-10-12T09:38:49.805Z,13.33
2018-10-12T09:41:18.517Z,15.27
2018-10-12T09:43:47.042Z,20.90
2018-10-12T09:46:15.608Z,12.63
2018-10-12T09:48:44.230Z,14.60
2018-10-12T09:51:12.868Z,18.13
2018-10-12T09:53:41.540Z,16.13
2018-10-12T09:56:10.240Z,12.60
2018-10-12T09:58:38.851Z,9.83
2018-10-12T10:01:12.648Z,12.83
2018-10-12T10:03:46.364Z,12.07
2018-10-12T10:06:15.028Z,9.37
2018-10-12T10:08:43.829Z,12.30
2018-10-12T10:11:12.397Z,9.10
2018-10-12T10:13:41.223Z,7.97
2018-10-12T10:16:09.778Z,6.73
2018-10-12T10:18:38.340Z,12.93
2018-10-12T10:21:07.017Z,7.40
2018-10-12T10:23:35.937Z,10.27
2018-10-12T10:26:04.611Z,6.27
2018-10-12T10:28:33.206Z,11.60
2018-10-12T10:31:01.925Z,10.43
2018-10-12T10:33:30.521Z,14.43
2018-10-12T10:35:59.120Z,10.53
2018-10-12T10:38:27.661Z,7.97
2018-10-12T10:40:56.244Z,8.73
2018-10-12T10:43:24.897Z,12.97
2018-10-12T10:45:53.489Z,5.30
2018-10-12T10:48:22.269Z,7.73
2018-10-12T10:50:50.877Z,8.87
2018-10-12T10:53:19.488Z,5.53
2018-10-12T10:55:48.109Z,6.13
2018-10-12T10:58:16.784Z,5.50
2018-10-12T11:00:45.368Z,7.13
2018-10-12T11:03:13.934Z,9.53
2018-10-12T11:05:42.596Z,22.93
2018-10-12T11:08:11.176Z,4.83
2018-10-12T11:10:39.713Z,3.90
2018-10-12T11:13:08.485Z,5.17
2018-10-12T11:15:37.113Z,9.47
2018-10-12T11:18:06.126Z,9.47
2018-10-12T11:20:34.748Z,7.17
2018-10-12T11:23:03.329Z,9.53
2018-10-12T11:25:31.906Z,5.80
2018-10-12T11:28:00.517Z,20.90
2018-10-12T11:30:29.096Z,7.00
2018-10-12T11:32:57.843Z,13.40
2018-10-12T11:35:26.430Z,5.87
2018-10-12T11:37:55.567Z,8.30
2018-10-12T11:40:24.161Z,14.33
2018-10-12T11:43:03.841Z,7.63
2018-10-12T11:45:32.490Z,8.80
2018-10-12T11:48:01.065Z,13.13
2018-10-12T11:50:29.637Z,6.43
2018-10-12T11:52:58.232Z,3.53
2018-10-12T11:55:26.837Z,7.77
2018-10-12T11:57:55.689Z,3.77
2018-10-12T12:00:24.344Z,5.30
2018-10-12T12:02:52.941Z,16.03
2018-10-12T12:05:21.599Z,2.70
2018-10-12T12:07:50.105Z,4.40
2018-10-12T12:10:18.617Z,7.67
2018-10-12T12:12:47.277Z,6.27
2018-10-12T12:15:15.938Z,4.17
2018-10-12T12:17:44.529Z,2.80
2018-10-12T12:20:13.241Z,7.90
2018-10-12T12:22:42.161Z,3.10
2018-10-12T12:25:10.700Z,2.40
2018-10-12T12:27:39.359Z,4.73
2018-10-12T12:30:08.037Z,5.07
2018-10-12T12:32:36.563Z,4.63
2018-10-12T12:35:05.431Z,2.03
2018-10-12T12:37:33.893Z,7.03
2018-10-12T12:40:02.617Z,8.40
2018-10-12T12:42:31.364Z,10.80
2018-10-12T12:44:59.890Z,8.17
2018-10-12T12:47:28.562Z,4.60
2018-10-12T12:49:57.344Z,4.83
2018-10-12T12:52:26.003Z,5.20
2018-10-12T12:54:54.552Z,7.17
2018-10-12T12:57:23.116Z,5.50
2018-10-12T12:59:51.804Z,9.37
2018-10-12T13:02:20.360Z,13.00
2018-10-12T13:04:48.900Z,8.70
2018-10-12T13:07:17.511Z,9.00
2018-10-12T13:09:46.149Z,5.73
2018-10-12T13:12:14.765Z,3.90
2018-10-12T13:14:43.704Z,10.33
2018-10-12T13:17:12.404Z,6.10
2018-10-12T13:19:41.232Z,4.53
2018-10-12T13:22:09.882Z,5.93
2018-10-12T13:24:38.420Z,4.50
2018-10-12T13:27:06.970Z,4.13
2018-10-12T13:29:35.768Z,11.43
2018-10-12T13:32:04.418Z,4.30
2018-10-12T13:34:33.010Z,11.63
2018-10-12T13:37:01.637Z,12.10
2018-10-12T13:39:30.274Z,6.50
2018-10-12T13:41:58.966Z,7.40
2018-10-12T13:44:27.657Z,7.83
2018-10-12T13:46:56.230Z,5.30
2018-10-12T13:49:24.886Z,7.73
2018-10-12T13:51:53.557Z,6.47
2018-10-12T13:54:22.195Z,4.03
2018-10-12T13:56:55.019Z,6.87
2018-10-12T13:59:23.557Z,5.77
2018-10-12T14:01:52.110Z,4.30
2018-10-12T14:04:20.745Z,6.13
2018-10-12T14:06:49.429Z,5.97
2018-10-12T14:09:18.091Z,12.33
2018-10-12T14:11:46.665Z,4.83
2018-10-12T14:14:15.362Z,3.60
2018-10-12T14:16:43.893Z,5.67
2018-10-12T14:19:12.824Z,11.37
2018-10-12T14:21:41.237Z,9.13
2018-10-12T14:24:09.793Z,5.63
2018-10-12T14:26:38.530Z,6.10
2018-10-12T14:29:07.096Z,6.47
2018-10-12T14:31:35.757Z,4.07
2018-10-12T14:34:04.311Z,20.17
2018-10-12T14:36:32.825Z,2.60
2018-10-12T14:39:01.474Z,3.83
2018-10-12T14:41:30.129Z,6.83
2018-10-12T14:43:58.888Z,3.33
2018-10-12T14:46:27.381Z,4.57
2018-10-12T14:48:56.001Z,8.87
2018-10-12T14:51:24.612Z,3.13
2018-10-12T14:53:53.205Z,4.60
2018-10-12T14:56:21.809Z,4.00
2018-10-12T14:58:50.340Z,5.10
2018-10-12T15:01:18.878Z,5.27
2018-10-12T15:03:47.430Z,3.73
2018-10-12T15:06:16.447Z,5.27
2018-10-12T15:08:45.095Z,4.10
2018-10-12T15:11:13.768Z,7.57
2018-10-12T15:13:42.337Z,9.23
2018-10-12T15:16:10.956Z,4.03
2018-10-12T15:18:39.693Z,7.40
2018-10-12T15:21:08.339Z,6.03
2018-10-12T15:23:36.953Z,12.63
2018-10-12T15:26:05.660Z,6.83
2018-10-12T15:28:34.226Z,3.53
2018-10-12T15:31:02.766Z,4.27
2018-10-12T15:33:31.644Z,7.53
2018-10-12T15:36:00.205Z,3.27
2018-10-12T15:38:28.839Z,6.13
2018-10-12T15:40:57.429Z,4.50
2018-10-12T15:43:26.024Z,6.50
2018-10-12T15:45:54.576Z,9.90
2018-10-12T15:48:23.210Z,4.70
2018-10-12T15:50:51.896Z,8.70
2018-10-12T15:53:20.472Z,9.80
2018-10-12T15:55:49.136Z,15.97
2018-10-12T15:58:17.675Z,2.97
2018-10-12T16:00:46.245Z,2.60
2018-10-12T16:03:14.885Z,4.33
2018-10-12T16:05:43.485Z,9.00
2018-10-12T16:08:12.112Z,8.87
2018-10-12T16:10:40.796Z,5.50
2018-10-12T16:13:09.429Z,6.30
2018-10-12T16:15:38.024Z,4.40
2018-10-12T16:18:06.909Z,5.20
2018-10-12T16:20:35.596Z,6.03
2018-10-12T16:23:05.061Z,8.30
2018-10-12T16:25:56.382Z,7.23
2018-10-12T16:28:25.316Z,10.97
2018-10-12T16:30:54.857Z,8.20
2018-10-12T16:33:24.056Z,5.63
2018-10-12T16:35:53.957Z,3.83
2018-10-12T16:38:22.981Z,5.53
2018-10-12T16:40:51.873Z,11.60
2018-10-12T16:43:20.468Z,4.90
2018-10-12T16:45:50.320Z,9.63
2018-10-12T16:48:19.036Z,6.50
2018-10-12T16:50:47.740Z,3.03
2018-10-12T16:53:16.372Z,9.93
2018-10-12T16:55:45.038Z,9.70
2018-10-12T16:58:14.655Z,10.53
2018-10-12T17:00:43.621Z,5.33
2018-10-12T17:03:12.446Z,6.33
2018-10-12T17:05:41.025Z,6.43
2018-10-12T17:08:09.589Z,7.13
2018-10-12T17:10:38.180Z,7.50
2018-10-12T17:13:06.800Z,3.10
2018-10-12T17:15:35.433Z,8.03
2018-10-12T17:18:04.010Z,4.57
2018-10-12T17:20:32.616Z,4.53
2018-10-12T17:23:01.135Z,6.50
2018-10-12T17:25:29.733Z,6.40
2018-10-12T17:27:58.349Z,6.37
2018-10-12T17:30:26.969Z,6.60
2018-10-12T17:32:55.728Z,10.97
2018-10-12T17:35:24.376Z,3.23
2018-10-12T17:37:52.905Z,2.50
2018-10-12T17:40:21.645Z,8.90
2018-10-12T17:42:50.320Z,7.97
2018-10-12T17:45:18.901Z,6.83
2018-10-12T17:47:47.581Z,7.63
2018-10-12T17:50:16.114Z,4.10
2018-10-12T17:52:44.665Z,3.97
2018-10-12T17:55:13.320Z,2.33
2018-10-12T17:57:41.877Z,3.30
2018-10-12T18:00:11.014Z,8.87
2018-10-12T18:02:39.601Z,10.33
2018-10-12T18:05:08.871Z,5.30
2018-10-12T18:07:37.564Z,6.07
2018-10-12T18:10:07.222Z,12.50
2018-10-12T18:12:35.837Z,11.73
2018-10-12T18:15:05.008Z,9.73
2018-10-12T18:17:33.640Z,16.43
2018-10-12T18:20:02.269Z,17.67
2018-10-12T18:22:30.873Z,17.40
2018-10-12T18:24:59.488Z,7.63
2018-10-12T18:27:28.044Z,9.23
2018-10-12T18:29:56.673Z,10.80
2018-10-12T18:32:25.297Z,28.70
2018-10-12T18:34:53.965Z,13.40
2018-10-12T18:37:22.532Z,10.17
2018-10-12T18:39:51.217Z,8.73
2018-10-12T18:42:19.957Z,11.37
2018-10-12T18:44:48.658Z,22.37
2018-10-12T18:47:17.276Z,8.97
2018-10-12T18:49:45.794Z,14.30
2018-10-12T18:52:14.459Z,16.60
2018-10-12T18:54:43.249Z,17.73
2018-10-12T18:57:11.773Z,7.90
2018-10-12T18:59:40.386Z,9.60
2018-10-12T19:02:08.961Z,7.67
2018-10-12T19:04:37.691Z,5.43
2018-10-12T19:07:06.125Z,13.90
2018-10-12T19:09:34.757Z,4.30
2018-10-12T19:12:03.416Z,7.13
2018-10-12T19:14:31.973Z,9.60
2018-10-12T19:17:00.829Z,4.30
2018-10-12T19:19:29.638Z,6.37
2018-10-12T19:21:58.376Z,5.03
2018-10-12T19:24:27.057Z,9.83
2018-10-12T19:26:55.591Z,12.87
2018-10-12T19:29:24.305Z,18.50
2018-10-12T19:31:52.963Z,6.70
2018-10-12T19:34:21.507Z,6.10
2018-10-12T19:36:50.260Z,4.23
2018-10-12T19:39:18.939Z,4.20
2018-10-12T19:41:47.839Z,13.50
2018-10-12T19:44:16.500Z,4.47
2018-10-12T19:46:45.150Z,8.20
2018-10-12T19:49:14.004Z,7.90
2018-10-12T19:51:42.681Z,18.17
2018-10-12T19:54:11.233Z,5.63
2018-10-12T19:56:40.074Z,5.20
2018-10-12T19:59:08.763Z,10.10
2018-10-12T20:01:37.346Z,7.80
2018-10-12T20:04:06.040Z,4.83
2018-10-12T20:06:34.646Z,5.17
2018-10-12T20:09:04.061Z,6.90
2018-10-12T20:11:32.699Z,8.43
2018-10-12T20:14:01.316Z,7.37
2018-10-12T20:16:29.910Z,8.67
2018-10-12T20:18:58.492Z,10.10
2018-10-12T20:21:27.043Z,6.87
2018-10-12T20:23:55.714Z,8.20
2018-10-12T20:26:24.221Z,11.97
2018-10-12T20:28:52.888Z,6.80
2018-10-12T20:31:21.836Z,6.43
2018-10-12T20:33:50.485Z,14.13
2018-10-12T20:36:19.032Z,6.43
2018-10-12T20:38:47.905Z,5.10
2018-10-12T20:41:16.573Z,6.53
2018-10-12T20:43:45.184Z,7.73
2018-10-12T20:46:13.876Z,4.67
2018-10-12T20:48:42.472Z,14.17
2018-10-12T20:51:11.089Z,5.53
2018-10-12T20:53:39.701Z,8.00
2018-10-12T20:56:09.096Z,5.67
2018-10-12T20:58:37.657Z,8.63
2018-10-12T21:01:06.552Z,6.53
2018-10-12T21:03:35.145Z,7.53
2018-10-12T21:06:03.717Z,4.93
2018-10-12T21:08:32.377Z,6.30
2018-10-12T21:11:00.949Z,7.33
2018-10-12T21:13:29.528Z,5.27
2018-10-12T21:15:58.489Z,5.37
2018-10-12T21:18:27.033Z,4.97
2018-10-12T21:20:55.637Z,7.70
2018-10-12T21:23:24.284Z,6.90
2018-10-12T21:25:52.924Z,6.10
2018-10-12T21:28:21.624Z,6.30
2018-10-12T21:30:50.333Z,9.43
2018-10-12T21:33:18.877Z,3.83
2018-10-12T21:35:47.548Z,13.23
2018-10-12T21:38:16.157Z,6.57
2018-10-12T21:40:44.724Z,11.50
2018-10-12T21:43:13.324Z,8.30
2018-10-12T21:45:41.896Z,6.97
2018-10-12T21:48:10.436Z,6.33
2018-10-12T21:50:39.015Z,8.90
2018-10-12T21:53:07.604Z,5.60
2018-10-12T21:55:36.245Z,7.77
2018-10-12T21:58:04.777Z,7.23
2018-10-12T22:00:33.416Z,5.87
2018-10-12T22:03:02.009Z,4.97
2018-10-12T22:05:30.808Z,7.57
2018-10-12T22:07:59.427Z,7.00
2018-10-12T22:10:28.103Z,10.30
2018-10-12T22:12:56.772Z,10.40
2018-10-12T22:15:25.326Z,9.10
2018-10-12T22:17:53.879Z,7.10
2018-10-12T22:20:22.522Z,6.47
2018-10-12T22:22:51.231Z,9.07
2018-10-12T22:25:19.973Z,4.97
2018-10-12T22:27:48.606Z,7.07
2018-10-12T22:30:17.195Z,8.53
2018-10-12T22:32:45.736Z,7.43
2018-10-12T22:35:14.332Z,9.83
2018-10-12T22:37:42.988Z,9.90
2018-10-12T22:40:11.637Z,7.63
2018-10-12T22:42:40.369Z,8.40
2018-10-12T22:45:09.077Z,6.63
2018-10-12T22:47:37.708Z,6.30
2018-10-12T22:50:06.337Z,6.13
2018-10-12T22:52:34.936Z,5.93
2018-10-12T22:55:03.537Z,16.03
2018-10-12T22:57:32.095Z,9.93
2018-10-12T23:00:00.756Z,9.73
2018-10-12T23:02:29.304Z,7.73
2018-10-12T23:04:57.910Z,9.50
2018-10-12T23:07:26.533Z,4.43
2018-10-12T23:09:55.121Z,6.83
2018-10-12T23:12:23.689Z,9.50
2018-10-12T23:14:52.273Z,9.03
2018-10-12T23:17:20.953Z,5.93
2018-10-12T23:19:49.601Z,4.67
2018-10-12T23:22:18.169Z,4.67
2018-10-12T23:24:46.818Z,5.80
2018-10-12T23:27:15.664Z,5.83
2018-10-12T23:29:44.241Z,8.40
2018-10-12T23:32:12.792Z,6.33
2018-10-12T23:34:41.313Z,5.70
2018-10-12T23:37:09.893Z,9.93
2018-10-12T23:39:38.432Z,5.70
2018-10-12T23:42:07.148Z,6.53
2018-10-12T23:44:35.741Z,4.27
2018-10-12T23:47:04.415Z,4.60
2018-10-12T23:49:32.969Z,4.90
2018-10-12T23:52:01.569Z,5.37
2018-10-12T23:54:30.117Z,5.33
2018-10-12T23:56:58.676Z,5.70
2018-10-12T23:59:27.300Z,6.23
